Time;durP1;ratioP1;P1;durP2;ratioP2;P2;SDS_P1;SDS_P2;PMS_P1;PMS_P2;Temp;Humidity;BMP_temperature;BMP_pressure;BME280_temperature;BME280_humidity;BME280_pressure;Samples;Min_cycle;Max_cycle;Signal;HPM_P1;HPM_P2
2023/12/20 00:00:12;;;;;;;10.65;5.82;;;;;;;6.23;83.43;100749.66;4177644;28;20553;-68
2023/12/20 00:02:15;;;;;;;11.38;6.75;;;;;;;6.20;83.67;100746.97;4179768;28;20043;-68
2023/12/20 00:04:19;;;;;;;8.25;5.30;;;;;;;6.24;83.20;100741.09;4179311;28;20411;-68
2023/12/20 00:06:22;;;;;;;9.05;5.78;;;;;;;6.22;83.85;100736.69;4172701;28;20053;-68
2023/12/20 00:08:25;;;;;;;7.60;5.72;;;;;;;6.22;83.18;100737.59;4176507;28;20041;-68
2023/12/20 00:10:28;;;;;;;8.00;5.47;;;;;;;6.28;83.35;100734.38;4194428;28;20657;-68
2023/12/20 00:12:31;;;;;;;15.23;7.22;;;;;;;6.24;83.53;100727.31;4178086;28;20119;-68
2023/12/20 00:14:34;;;;;;;9.88;6.82;;;;;;;6.23;83.59;100729.00;4179547;28;20106;-68
2023/12/20 00:16:37;;;;;;;9.95;5.90;;;;;;;6.24;83.76;100733.34;4178725;28;20072;-68
2023/12/20 00:18:39;;;;;;;9.60;5.38;;;;;;;6.25;83.86;100737.72;4178918;28;20051;-68
2023/12/20 00:20:44;;;;;;;13.20;7.18;;;;;;;6.28;83.89;100735.22;4179650;28;20044;-68
2023/12/20 00:22:47;;;;;;;10.50;6.53;;;;;;;6.29;83.48;100731.84;4179340;28;20129;-68
2023/12/20 00:24:50;;;;;;;9.40;5.53;;;;;;;6.28;83.50;100734.38;4176079;28;20037;-69
2023/12/20 00:26:55;;;;;;;9.45;5.30;;;;;;;6.28;83.73;100729.19;4178802;28;20029;-68
2023/12/20 00:28:57;;;;;;;7.95;4.53;;;;;;;6.35;83.55;100732.84;4178983;28;20051;-68
2023/12/20 00:31:00;;;;;;;9.10;4.43;;;;;;;6.32;83.49;100727.59;4178761;28;20040;-68
2023/12/20 00:33:04;;;;;;;6.97;4.68;;;;;;;6.29;83.63;100730.94;4176395;28;20037;-68
2023/12/20 00:35:06;;;;;;;12.52;4.63;;;;;;;6.31;83.28;100725.81;4177467;28;20052;-68
2023/12/20 00:37:11;;;;;;;7.95;4.93;;;;;;;6.34;83.33;100728.50;4177976;28;20041;-68
2023/12/20 00:39:14;;;;;;;6.63;3.90;;;;;;;6.23;83.77;100728.13;4179274;28;20564;-68
2023/12/20 00:41:17;;;;;;;9.70;4.60;;;;;;;6.23;83.69;100728.13;4175453;28;20133;-68
2023/12/20 00:43:20;;;;;;;8.23;4.90;;;;;;;6.25;83.82;100723.91;4177488;28;20041;-68
2023/12/20 00:45:23;;;;;;;6.07;4.43;;;;;;;6.31;83.91;100715.50;4160688;28;20069;-68
2023/12/20 00:47:26;;;;;;;6.90;4.40;;;;;;;6.31;83.47;100718.97;4173606;28;20124;-68
2023/12/20 00:49:29;;;;;;;7.40;4.78;;;;;;;6.30;83.44;100719.78;4177478;28;20029;-68
2023/12/20 00:51:32;;;;;;;6.88;4.13;;;;;;;6.27;83.84;100725.72;4178397;28;20135;-68
2023/12/20 00:53:36;;;;;;;10.90;5.53;;;;;;;6.23;83.87;100721.25;4178099;28;20040;-68
2023/12/20 00:55:40;;;;;;;7.93;4.15;;;;;;;6.22;84.23;100722.09;4178882;28;20048;-68
2023/12/20 00:57:43;;;;;;;6.40;3.80;;;;;;;6.26;83.68;100716.25;4175175;28;20044;-68
2023/12/20 00:59:46;;;;;;;6.75;4.18;;;;;;;6.21;84.13;100712.59;4177315;28;20091;-68
2023/12/20 01:01:49;;;;;;;5.88;3.95;;;;;;;6.23;84.26;100716.09;4179389;28;21237;-68
2023/12/20 01:03:52;;;;;;;5.10;3.58;;;;;;;6.29;84.07;100713.75;4178188;28;20037;-67
2023/12/20 01:05:55;;;;;;;5.47;3.53;;;;;;;6.31;84.23;100715.50;4177018;28;20124;-67
2023/12/20 01:07:57;;;;;;;5.35;3.47;;;;;;;6.30;83.59;100719.78;4175915;28;20149;-68
2023/12/20 01:10:02;;;;;;;6.28;3.50;;;;;;;6.31;84.35;100715.50;4176315;28;20099;-68
2023/12/20 01:12:05;;;;;;;7.22;4.25;;;;;;;6.32;83.65;100714.69;4176966;28;20045;-68
2023/12/20 01:14:07;;;;;;;6.25;3.53;;;;;;;6.30;84.29;100717.22;4177700;28;20048;-68
2023/12/20 01:16:11;;;;;;;7.10;3.65;;;;;;;6.29;83.91;100712.84;4177526;28;20041;-68
2023/12/20 01:18:15;;;;;;;6.72;4.13;;;;;;;6.29;84.21;100708.59;4178559;28;20600;-68
2023/12/20 01:20:19;;;;;;;5.93;3.50;;;;;;;6.28;84.66;100709.41;4175492;28;20406;-68
2023/12/20 01:22:23;;;;;;;8.07;3.47;;;;;;;6.25;84.47;100709.31;4177298;28;20043;-68
2023/12/20 01:24:25;;;;;;;5.80;3.53;;;;;;;6.26;84.48;100711.06;4175348;28;20098;-68
2023/12/20 01:26:30;;;;;;;7.93;4.30;;;;;;;6.32;84.33;100700.06;4177560;28;20072;-68
2023/12/20 01:28:32;;;;;;;4.07;2.97;;;;;;;6.23;84.13;100708.34;4178946;28;20039;-68
2023/12/20 01:30:35;;;;;;;4.47;2.38;;;;;;;6.19;83.98;100700.44;4172992;28;20039;-68
2023/12/20 01:32:37;;;;;;;5.40;3.28;;;;;;;6.16;84.47;100705.50;4176546;28;20037;-68
2023/12/20 01:34:40;;;;;;;4.90;3.28;;;;;;;6.20;84.40;100697.06;4176969;28;20040;-68
2023/12/20 01:36:44;;;;;;;5.13;3.13;;;;;;;6.25;84.02;100698.97;4177896;28;20120;-68
2023/12/20 01:38:47;;;;;;;5.13;3.22;;;;;;;6.13;84.35;100701.09;4178213;28;20502;-68
2023/12/20 01:40:50;;;;;;;5.60;2.88;;;;;;;6.11;84.58;100705.34;4177622;28;20041;-69
2023/12/20 01:43:01;;;;;;;3.70;2.65;;;;;;;6.16;84.83;100706.38;4177027;28;20533;-68
2023/12/20 01:45:05;;;;;;;5.63;3.03;;;;;;;6.19;84.56;100705.63;4174193;28;20037;-68
2023/12/20 01:47:09;;;;;;;4.87;3.37;;;;;;;6.23;84.72;100707.50;4175927;28;20079;-68
2023/12/20 01:49:12;;;;;;;4.05;2.83;;;;;;;6.24;84.09;100704.09;4177569;28;20047;-68
2023/12/20 01:51:15;;;;;;;5.82;3.30;;;;;;;6.21;84.40;100704.00;4176563;28;20041;-68
2023/12/20 01:53:21;;;;;;;4.78;2.70;;;;;;;6.25;84.12;100700.66;4177546;28;20091;-68
2023/12/20 01:55:25;;;;;;;3.85;2.45;;;;;;;6.22;84.10;100700.56;4177559;28;20045;-68
2023/12/20 01:57:28;;;;;;;4.53;2.50;;;;;;;6.26;83.95;100702.44;4176562;28;20398;-68
2023/12/20 01:59:32;;;;;;;3.17;1.80;;;;;;;6.19;83.89;100695.28;4176350;28;20064;-68
2023/12/20 02:01:36;;;;;;;3.63;1.92;;;;;;;6.08;84.48;100692.34;4176948;28;20491;-68
2023/12/20 02:03:38;;;;;;;3.25;1.67;;;;;;;5.92;84.40;100702.03;4178151;28;20110;-68
2023/12/20 02:05:42;;;;;;;4.80;1.88;;;;;;;5.95;84.32;100707.31;4174434;28;20506;-68
2023/12/20 02:07:44;;;;;;;2.85;1.90;;;;;;;6.03;84.75;100717.97;4176902;28;20048;-68
2023/12/20 02:09:48;;;;;;;3.53;2.10;;;;;;;6.08;84.54;100716.44;4177693;28;20511;-68
2023/12/20 02:11:51;;;;;;;5.75;2.20;;;;;;;6.07;84.72;100716.38;4174685;28;20121;-68
2023/12/20 02:13:53;;;;;;;5.22;1.80;;;;;;;5.91;84.31;100720.97;4177055;28;20148;-68
2023/12/20 02:15:58;;;;;;;3.85;1.80;;;;;;;5.94;84.51;100715.00;4176994;28;20119;-68
2023/12/20 02:18:01;;;;;;;4.82;2.10;;;;;;;6.01;84.32;100709.28;4177274;28;20037;-68
2023/12/20 02:20:05;;;;;;;3.45;1.98;;;;;;;6.12;84.26;100709.69;4177524;28;20055;-68
2023/12/20 02:22:11;;;;;;;4.70;2.33;;;;;;;6.18;84.23;100702.16;4176294;28;20067;-68
2023/12/20 02:24:13;;;;;;;3.28;2.05;;;;;;;6.10;84.17;100704.47;4178235;28;20048;-68
2023/12/20 02:26:16;;;;;;;4.70;2.10;;;;;;;6.16;83.99;100711.53;4176197;28;20063;-68
2023/12/20 02:28:21;;;;;;;2.00;1.40;;;;;;;6.14;84.30;100702.00;4176757;28;20121;-68
2023/12/20 02:30:24;;;;;;;7.20;2.53;;;;;;;6.17;83.90;100704.69;4177222;28;20059;-68
2023/12/20 02:32:26;;;;;;;4.90;1.83;;;;;;;6.20;84.09;100704.81;4176063;28;20419;-68
2023/12/20 02:34:30;;;;;;;6.03;1.88;;;;;;;6.15;83.30;100704.63;4177815;28;20064;-68
2023/12/20 02:36:33;;;;;;;1.88;1.50;;;;;;;6.16;83.89;100708.09;4173589;28;20049;-68
2023/12/20 02:38:37;;;;;;;3.17;2.30;;;;;;;6.19;84.39;100711.69;4177822;28;20060;-68
2023/12/20 02:40:40;;;;;;;3.35;2.10;;;;;;;6.17;84.27;100715.03;4176339;28;20029;-68
2023/12/20 02:42:51;;;;;;;6.38;2.08;;;;;;;6.19;83.75;100709.09;4177323;28;20065;-68
2023/12/20 02:44:53;;;;;;;4.88;2.35;;;;;;;6.22;83.84;100696.28;4176941;28;20515;-68
2023/12/20 02:46:56;;;;;;;3.95;2.10;;;;;;;6.24;84.16;100681.72;4175731;28;20482;-68
2023/12/20 02:48:59;;;;;;;6.82;2.17;;;;;;;6.24;84.34;100678.28;4176361;28;20132;-68
2023/12/20 02:51:03;;;;;;;6.00;2.15;;;;;;;6.25;84.04;100680.91;4177064;28;20045;-68
2023/12/20 02:53:05;;;;;;;1.85;1.35;;;;;;;6.25;83.80;100692.91;4177172;28;20041;-68
2023/12/20 02:55:10;;;;;;;1.88;1.40;;;;;;;6.25;84.11;100693.81;4176904;28;20049;-68
2023/12/20 02:57:13;;;;;;;4.75;1.10;;;;;;;6.15;84.03;100699.47;4177097;28;20073;-68
2023/12/20 02:59:16;;;;;;;1.52;1.08;;;;;;;6.13;84.13;100697.66;4176858;28;20061;-68
2023/12/20 03:01:19;;;;;;;2.53;1.10;;;;;;;6.16;83.83;100695.19;4177108;28;20036;-68
2023/12/20 03:03:22;;;;;;;1.98;1.20;;;;;;;6.18;84.14;100697.00;4176829;28;20037;-68
2023/12/20 03:05:25;;;;;;;3.38;1.20;;;;;;;6.23;83.90;100704.91;4175590;28;20498;-68
2023/12/20 03:07:28;;;;;;;2.10;1.50;;;;;;;6.26;83.73;100698.16;4173497;28;20040;-68
2023/12/20 03:09:31;;;;;;;3.03;1.80;;;;;;;6.30;83.60;100704.31;4173252;28;20041;-68
2023/12/20 03:11:55;;;;;;;1.27;1.02;;;;;;;6.29;83.96;100697.38;4174547;28;20033;-68
2023/12/20 03:13:58;;;;;;;2.72;1.67;;;;;;;6.28;83.75;100691.34;4176459;28;20486;-68
2023/12/20 03:16:01;;;;;;;4.88;1.70;;;;;;;6.25;83.94;100691.22;4173809;28;20049;-68
2023/12/20 03:18:04;;;;;;;2.05;1.73;;;;;;;6.26;83.82;100692.09;4173784;28;20049;-68
2023/12/20 03:20:09;;;;;;;6.47;1.95;;;;;;;6.28;83.84;100704.25;4175700;28;20040;-68
2023/12/20 03:22:11;;;;;;;3.47;2.03;;;;;;;6.21;83.48;100704.84;4175477;28;20073;-69
2023/12/20 03:24:14;;;;;;;3.30;2.03;;;;;;;6.22;83.90;100706.63;4177038;28;20438;-68
2023/12/20 03:26:17;;;;;;;3.55;1.95;;;;;;;6.22;83.52;100711.78;4177209;28;20044;-68
2023/12/20 03:28:22;;;;;;;3.75;1.77;;;;;;;6.25;83.68;100718.72;4177141;28;20125;-69
2023/12/20 03:30:25;;;;;;;3.90;2.40;;;;;;;6.27;83.61;100725.72;4176335;28;20076;-68
2023/12/20 03:32:28;;;;;;;3.80;2.10;;;;;;;6.34;83.15;100724.25;4177522;28;20116;-68
2023/12/20 03:34:31;;;;;;;3.22;2.10;;;;;;;6.32;83.51;100717.25;4159201;28;20041;-68
2023/12/20 03:36:34;;;;;;;3.05;2.10;;;;;;;6.29;83.51;100716.34;4174936;28;20545;-68
2023/12/20 03:38:36;;;;;;;3.50;1.95;;;;;;;6.28;83.69;100706.81;4175702;28;20041;-68
2023/12/20 03:40:39;;;;;;;4.00;2.65;;;;;;;6.29;83.88;100708.59;4177587;28;20395;-68
2023/12/20 03:42:42;;;;;;;3.95;2.38;;;;;;;6.26;83.30;100705.91;4176667;28;20041;-68
2023/12/20 03:44:47;;;;;;;4.22;2.20;;;;;;;6.27;83.66;100712.81;4176160;28;20491;-68
2023/12/20 03:46:50;;;;;;;3.65;2.28;;;;;;;6.27;83.84;100705.06;4176209;28;20063;-68
2023/12/20 03:48:53;;;;;;;3.55;2.28;;;;;;;6.28;84.24;100709.41;4178613;28;20307;-68
2023/12/20 03:50:56;;;;;;;5.93;3.05;;;;;;;6.29;83.67;100689.63;4179947;28;20040;-68
2023/12/20 03:52:59;;;;;;;5.85;2.72;;;;;;;6.29;84.06;100689.63;4177549;28;20055;-68
2023/12/20 03:55:02;;;;;;;3.75;2.75;;;;;;;6.26;84.05;100703.34;4162579;28;20041;-68
2023/12/20 03:57:05;;;;;;;3.50;2.50;;;;;;;6.29;83.56;100707.69;4180225;28;20487;-68
2023/12/20 03:59:08;;;;;;;3.92;2.58;;;;;;;6.27;83.53;100715.38;4178423;28;20033;-68
2023/12/20 04:01:12;;;;;;;3.33;2.22;;;;;;;6.26;83.86;100711.06;4193287;28;20070;-68
2023/12/20 04:03:15;;;;;;;4.65;2.33;;;;;;;6.28;83.89;100705.97;4179800;28;20041;-68
2023/12/20 04:05:18;;;;;;;5.25;2.78;;;;;;;6.29;83.60;100716.34;4178662;28;20044;-68
2023/12/20 04:07:20;;;;;;;4.32;2.85;;;;;;;6.30;83.55;100719.78;4178616;28;20033;-68
2023/12/20 04:09:23;;;;;;;3.92;2.42;;;;;;;6.32;83.55;100717.25;4180001;28;20120;-68
2023/12/20 04:11:26;;;;;;;6.68;2.78;;;;;;;6.28;83.48;100713.72;4179737;28;20407;-68
2023/12/20 04:13:29;;;;;;;3.90;2.33;;;;;;;6.30;83.64;100730.13;4180213;28;20075;-68
2023/12/20 04:15:31;;;;;;;4.88;2.63;;;;;;;6.29;83.68;100720.59;4180104;28;20037;-68
2023/12/20 04:17:36;;;;;;;3.63;1.83;;;;;;;6.32;83.79;100727.59;4180265;28;20061;-68
2023/12/20 04:19:38;;;;;;;;;;;;;;;6.19;84.05;100722.00;4180414;28;20033;-68
2023/12/20 04:21:41;;;;;;;3.20;2.30;;;;;;;6.23;84.10;100723.84;4179683;28;19920;-68
2023/12/20 04:23:44;;;;;;;3.70;2.10;;;;;;;6.23;83.96;100721.25;4178844;28;20048;-68
2023/12/20 04:25:47;;;;;;;5.80;2.50;;;;;;;6.29;84.00;100730.94;4178554;28;20051;-68
2023/12/20 04:27:50;;;;;;;4.05;2.63;;;;;;;6.33;83.92;100735.38;4178239;28;20043;-68
2023/12/20 04:29:52;;;;;;;5.13;2.60;;;;;;;6.32;83.59;100736.19;4176289;28;20471;-68
2023/12/20 04:31:55;;;;;;;3.58;2.30;;;;;;;6.33;83.52;100735.38;4179082;28;20037;-68
2023/12/20 04:33:58;;;;;;;4.85;2.13;;;;;;;6.34;84.11;100736.25;4194155;28;20037;-68
2023/12/20 04:36:01;;;;;;;4.25;2.58;;;;;;;6.33;83.66;100731.94;4177692;28;20181;-68
2023/12/20 04:38:04;;;;;;;5.10;3.20;;;;;;;6.28;83.74;100744.69;4178407;28;20079;-68
2023/12/20 04:40:09;;;;;;;5.75;3.40;;;;;;;6.31;83.68;100746.47;4175171;28;20184;-68
2023/12/20 04:42:12;;;;;;;4.13;2.78;;;;;;;6.33;83.89;100750.88;4178933;28;20047;-68
2023/12/20 04:44:15;;;;;;;7.25;3.50;;;;;;;6.35;83.59;100758.69;4177806;28;20094;-68
2023/12/20 04:46:18;;;;;;;4.07;3.25;;;;;;;6.37;83.84;100752.75;4177540;28;20486;-68
2023/12/20 04:48:21;;;;;;;7.47;5.70;;;;;;;6.41;83.77;100749.47;4179292;28;20486;-68
2023/12/20 04:50:26;;;;;;;6.25;4.00;;;;;;;6.40;84.15;100749.41;4192216;28;20036;-68
2023/12/20 04:52:29;;;;;;;;;;;;;;;6.30;84.00;100753.34;4177703;28;20098;-68
2023/12/20 04:54:31;;;;;;;5.78;4.38;;;;;;;6.34;83.81;100750.06;4176672;28;19921;-68
2023/12/20 04:56:34;;;;;;;6.75;4.43;;;;;;;6.39;83.30;100750.22;4176724;28;20127;-68
2023/12/20 04:58:37;;;;;;;9.68;5.35;;;;;;;6.39;83.37;100763.13;4178752;28;20041;-68
2023/12/20 05:00:40;;;;;;;6.53;3.92;;;;;;;6.41;84.02;100764.06;4175237;28;20075;-68
2023/12/20 05:02:42;;;;;;;5.30;3.50;;;;;;;6.39;83.54;100766.59;4177719;28;20490;-68
2023/12/20 05:04:46;;;;;;;7.20;4.32;;;;;;;6.43;83.79;100775.34;4178114;28;20472;-68
2023/12/20 05:06:50;;;;;;;4.15;2.25;;;;;;;6.43;83.61;100770.19;4179112;28;20041;-69
2023/12/20 05:08:53;;;;;;;3.97;2.72;;;;;;;6.44;83.84;100770.22;4175565;28;20041;-68
2023/12/20 05:10:56;;;;;;;3.17;2.45;;;;;;;6.44;83.44;100772.81;4176801;28;20119;-68
2023/12/20 05:12:59;;;;;;;4.15;2.53;;;;;;;6.47;83.83;100777.22;4177634;28;20486;-69
2023/12/20 05:15:04;;;;;;;4.85;3.35;;;;;;;6.49;83.94;100778.13;4175213;28;20045;-69
2023/12/20 05:17:06;;;;;;;7.80;3.17;;;;;;;6.49;83.56;100780.72;4178616;28;20059;-68
2023/12/20 05:19:09;;;;;;;4.53;2.60;;;;;;;6.49;84.08;100788.47;4179486;28;20037;-68
2023/12/20 05:21:13;;;;;;;3.08;2.60;;;;;;;6.47;83.94;100785.84;4177229;28;20036;-68
2023/12/20 05:23:17;;;;;;;2.95;2.08;;;;;;;6.47;84.31;100787.56;4177048;28;20045;-68
2023/12/20 05:25:20;;;;;;;3.85;2.85;;;;;;;6.48;83.78;100784.13;4177489;28;20072;-68
2023/12/20 05:27:23;;;;;;;2.90;2.15;;;;;;;6.48;84.10;100791.88;4176317;28;20112;-68
2023/12/20 05:29:26;;;;;;;3.33;2.10;;;;;;;6.51;83.70;100791.09;4175878;28;20033;-68
2023/12/20 05:31:29;;;;;;;2.35;1.88;;;;;;;6.52;84.32;100795.47;4174977;28;20047;-67
2023/12/20 05:33:32;;;;;;;2.35;1.92;;;;;;;6.53;84.14;100797.22;4174515;28;20037;-67
2023/12/20 05:35:35;;;;;;;2.38;1.95;;;;;;;6.54;83.87;100798.97;4178688;28;20040;-67
2023/12/20 05:37:38;;;;;;;2.95;2.15;;;;;;;6.53;83.68;100792.06;4178717;28;20036;-67
2023/12/20 05:39:42;;;;;;;3.30;2.38;;;;;;;6.56;83.93;100795.63;4177983;28;20025;-67
2023/12/20 05:41:44;;;;;;;2.10;1.90;;;;;;;6.55;84.11;100798.16;4178383;28;20033;-67
2023/12/20 05:43:47;;;;;;;3.90;2.70;;;;;;;6.55;83.83;100801.59;4178622;28;20143;-68
2023/12/20 05:45:50;;;;;;;2.78;2.13;;;;;;;6.56;83.65;100803.38;4178516;28;20496;-68
2023/12/20 05:47:53;;;;;;;3.28;2.55;;;;;;;6.57;83.80;100806.81;4177427;28;20037;-68
2023/12/20 05:49:56;;;;;;;3.83;2.80;;;;;;;6.60;83.45;100818.16;4178500;28;20083;-68
2023/12/20 05:51:59;;;;;;;3.97;2.88;;;;;;;6.62;83.94;100821.66;4177573;28;20041;-68
2023/12/20 05:54:02;;;;;;;4.13;3.00;;;;;;;6.66;83.63;100827.84;4178062;28;20044;-68
2023/12/20 05:56:07;;;;;;;4.07;2.95;;;;;;;6.69;83.29;100833.09;4175599;28;20033;-68
2023/12/20 05:58:10;;;;;;;4.25;2.88;;;;;;;6.70;83.71;100849.47;4177145;28;20037;-68
2023/12/20 06:00:15;;;;;;;3.70;2.55;;;;;;;6.73;83.14;100863.41;4178612;28;20052;-68
2023/12/20 06:02:18;;;;;;;;;;;;;;;6.64;82.78;100865.63;4177771;28;20458;-68
2023/12/20 06:04:21;;;;;;;3.17;2.63;;;;;;;6.63;82.90;100863.91;4177152;28;20024;-68
2023/12/20 06:06:25;;;;;;;5.10;3.30;;;;;;;6.63;83.25;100869.94;4178431;28;20487;-68
2023/12/20 06:08:28;;;;;;;4.35;3.22;;;;;;;6.67;83.07;100870.03;4176937;28;20067;-68
2023/12/20 06:10:31;;;;;;;5.40;2.97;;;;;;;6.67;83.57;100875.22;4177321;28;20029;-68
2023/12/20 06:12:36;;;;;;;4.03;2.95;;;;;;;6.67;83.16;100877.78;4177406;28;20128;-68
2023/12/20 06:14:39;;;;;;;;;;;;;;;6.55;83.25;100875.63;4177313;28;20036;-68
2023/12/20 06:16:42;;;;;;;6.53;3.70;;;;;;;6.59;83.49;100878.38;4178753;28;19920;-68
2023/12/20 06:18:45;;;;;;;4.28;3.17;;;;;;;6.61;83.84;100879.34;4177174;28;20466;-68
2023/12/20 06:20:47;;;;;;;5.32;3.95;;;;;;;6.65;83.67;100882.91;4177034;28;20047;-68
2023/12/20 06:22:50;;;;;;;4.55;3.47;;;;;;;6.62;83.58;100882.78;4175291;28;20033;-68
2023/12/20 06:24:53;;;;;;;7.13;4.50;;;;;;;6.66;83.77;100883.78;4174306;28;20033;-68
2023/12/20 06:26:56;;;;;;;4.97;3.67;;;;;;;6.67;83.67;100876.06;4177691;28;20068;-68
2023/12/20 06:29:01;;;;;;;6.50;3.65;;;;;;;6.62;83.74;100875.03;4177317;28;20045;-68
2023/12/20 06:31:04;;;;;;;4.47;3.17;;;;;;;6.57;83.84;100874.88;4177654;28;20040;-68
2023/12/20 06:33:09;;;;;;;5.35;3.97;;;;;;;6.61;83.88;100878.44;4177539;28;20119;-68
2023/12/20 06:35:12;;;;;;;6.18;4.03;;;;;;;6.51;83.19;100872.03;4176309;28;20065;-68
2023/12/20 06:37:16;;;;;;;5.43;3.80;;;;;;;6.51;83.53;100877.22;4177227;28;20407;-68
2023/12/20 06:39:18;;;;;;;6.10;3.67;;;;;;;6.51;83.17;100872.03;4176835;28;20037;-68
2023/12/20 06:41:24;;;;;;;5.13;3.60;;;;;;;6.50;83.13;100872.88;4177564;28;20560;-68
2023/12/20 06:43:30;;;;;;;7.18;3.72;;;;;;;6.48;82.96;100882.25;4177136;28;20061;-68
2023/12/20 06:45:52;;;;;;;5.65;4.20;;;;;;;6.43;82.86;100873.47;4177789;28;20076;-68
2023/12/20 06:47:55;;;;;;;5.38;3.40;;;;;;;6.38;83.13;100875.91;4177456;28;20037;-68
2023/12/20 06:49:58;;;;;;;5.97;3.25;;;;;;;6.26;82.82;100872.81;4177188;28;20106;-68
2023/12/20 06:52:02;;;;;;;4.97;3.55;;;;;;;6.22;82.35;100877.00;4177784;28;20064;-68
2023/12/20 06:54:05;;;;;;;8.95;3.22;;;;;;;6.14;82.47;100886.16;4178128;28;20037;-68
2023/12/20 06:56:07;;;;;;;4.15;2.88;;;;;;;6.08;82.14;100884.19;4177621;28;20064;-67
2023/12/20 06:58:10;;;;;;;4.78;3.15;;;;;;;6.09;82.30;100887.69;4176675;28;20131;-67
2023/12/20 07:00:14;;;;;;;6.20;3.47;;;;;;;6.11;82.36;100898.94;4177862;28;20047;-67
2023/12/20 07:02:18;;;;;;;8.50;2.70;;;;;;;6.00;81.57;100898.53;4177400;28;20057;-67
2023/12/20 07:04:21;;;;;;;6.90;3.40;;;;;;;6.05;81.51;100889.25;4178448;28;20037;-67
2023/12/20 07:06:25;;;;;;;7.00;3.17;;;;;;;6.09;81.57;100890.25;4177807;28;20501;-67
2023/12/20 07:08:28;;;;;;;7.95;3.13;;;;;;;6.02;81.35;100890.84;4177100;28;20040;-67
2023/12/20 07:10:31;;;;;;;6.57;3.90;;;;;;;5.98;80.74;100886.38;4177168;28;20044;-67
2023/12/20 07:12:34;;;;;;;8.20;4.90;;;;;;;6.02;80.68;100883.09;4176556;28;20041;-67
2023/12/20 07:14:37;;;;;;;8.90;5.45;;;;;;;6.02;81.21;100891.72;4188988;28;20045;-67
2023/12/20 07:16:40;;;;;;;8.82;4.55;;;;;;;6.05;81.11;100883.22;4175547;28;20045;-67
2023/12/20 07:18:43;;;;;;;8.40;4.55;;;;;;;6.00;81.03;100901.09;4177123;28;20033;-67
2023/12/20 07:20:46;;;;;;;9.98;4.38;;;;;;;5.88;81.23;100895.41;4176538;28;20083;-67
2023/12/20 07:22:50;;;;;;;7.80;3.85;;;;;;;5.80;81.28;100900.25;4180215;28;20041;-69
2023/12/20 07:24:54;;;;;;;6.30;3.67;;;;;;;5.84;81.46;100893.50;4161621;28;20407;-69
2023/12/20 07:27:00;;;;;;;6.95;4.03;;;;;;;5.84;81.33;100897.00;4175419;28;20053;-69
2023/12/20 07:29:04;;;;;;;8.20;3.63;;;;;;;5.82;81.10;100893.44;4177411;28;20116;-69
2023/12/20 07:31:07;;;;;;;7.90;3.60;;;;;;;5.83;81.04;100891.78;4178116;28;20029;-69
2023/12/20 07:33:12;;;;;;;7.00;3.47;;;;;;;5.77;80.74;100892.41;4180133;28;20467;-69
2023/12/20 07:35:16;;;;;;;11.18;4.18;;;;;;;5.74;81.23;100890.56;4178447;28;20041;-69
2023/12/20 07:37:20;;;;;;;;;;;;;;;5.66;81.23;100893.66;4180441;28;20044;-69
2023/12/20 07:39:23;;;;;;;7.90;3.30;;;;;;;5.68;80.96;100907.47;4182312;28;20332;-69
2023/12/20 07:41:25;;;;;;;11.40;5.18;;;;;;;5.64;80.61;100913.34;4182980;28;20495;-69
2023/12/20 07:43:28;;;;;;;15.30;7.38;;;;;;;5.64;81.39;100910.78;4184481;28;20592;-69
2023/12/20 07:45:31;;;;;;;15.45;7.85;;;;;;;5.62;80.69;100910.69;4177641;28;20116;-69
2023/12/20 07:47:34;;;;;;;12.55;6.50;;;;;;;5.59;80.60;100913.13;4179527;28;20049;-69
2023/12/20 07:49:37;;;;;;;16.73;6.90;;;;;;;5.59;80.29;100921.78;4179903;28;20144;-69
2023/12/20 07:51:42;;;;;;;13.85;7.45;;;;;;;5.58;80.25;100926.88;4178066;28;20051;-69
2023/12/20 07:53:44;;;;;;;14.70;5.63;;;;;;;5.59;80.27;100926.94;4179907;28;20040;-69
2023/12/20 07:55:47;;;;;;;16.50;5.75;;;;;;;5.53;80.54;100930.94;4172424;28;20041;-69
2023/12/20 07:57:50;;;;;;;12.18;5.93;;;;;;;5.51;80.31;100937.75;4178340;28;20056;-69
2023/12/20 07:59:53;;;;;;;14.48;7.10;;;;;;;5.50;80.08;100934.25;4171754;28;20418;-69
2023/12/20 08:01:56;;;;;;;12.95;9.02;;;;;;;5.56;80.78;100929.38;4177963;28;20033;-69
2023/12/20 08:03:59;;;;;;;15.80;7.95;;;;;;;5.63;80.57;100934.81;4162124;28;20051;-69
2023/12/20 08:06:03;;;;;;;11.13;6.90;;;;;;;5.60;80.27;100930.38;4176475;28;20292;-69
2023/12/20 08:08:08;;;;;;;8.30;5.55;;;;;;;5.68;80.37;100928.13;4180621;28;20051;-69
2023/12/20 08:10:11;;;;;;;12.73;6.30;;;;;;;5.71;80.25;100920.50;4177562;28;20509;-69
2023/12/20 08:12:14;;;;;;;7.65;3.53;;;;;;;5.70;79.68;100936.81;4176745;28;20414;-69
2023/12/20 08:14:16;;;;;;;13.10;4.18;;;;;;;5.70;79.44;100936.81;4175839;28;20051;-69
2023/12/20 08:16:19;;;;;;;10.13;3.67;;;;;;;5.63;79.42;100940.81;4175299;28;20041;-68
2023/12/20 08:18:22;;;;;;;10.18;4.32;;;;;;;5.60;79.25;100941.56;4185204;28;20036;-70
2023/12/20 08:20:25;;;;;;;10.27;3.38;;;;;;;5.53;79.25;100941.25;4176513;28;20103;-70
2023/12/20 08:22:41;;;;;;;9.32;2.90;;;;;;;5.49;79.74;100937.69;4180926;28;20064;-71
2023/12/20 08:24:46;;;;;;;6.38;2.85;;;;;;;5.48;79.70;100935.03;4182872;28;20148;-70
2023/12/20 08:26:49;;;;;;;8.20;2.88;;;;;;;5.47;79.19;100939.28;4180177;28;20459;-68
2023/12/20 08:28:52;;;;;;;7.78;2.95;;;;;;;5.45;78.91;100942.63;4181607;28;20513;-69
2023/12/20 08:30:55;;;;;;;7.95;2.70;;;;;;;5.48;79.58;100951.38;4180946;28;20033;-69
2023/12/20 08:33:00;;;;;;;8.98;2.92;;;;;;;5.41;78.99;100951.94;4179360;28;20041;-69
2023/12/20 08:35:04;;;;;;;6.38;2.47;;;;;;;5.39;79.27;100943.25;4177237;28;20047;-69
2023/12/20 08:37:07;;;;;;;5.80;2.53;;;;;;;5.40;78.85;100947.59;4179926;28;20513;-69
2023/12/20 08:39:09;;;;;;;5.80;2.45;;;;;;;5.40;78.52;100947.59;4179564;28;20135;-69
2023/12/20 08:41:14;;;;;;;5.95;2.53;;;;;;;5.41;79.03;100949.34;4180698;28;20436;-68
2023/12/20 08:43:16;;;;;;;6.72;2.70;;;;;;;5.37;78.34;100945.78;4181779;28;20044;-69
2023/12/20 08:45:19;;;;;;;6.30;2.30;;;;;;;5.41;78.50;100947.66;4174368;28;20044;-69
2023/12/20 08:47:22;;;;;;;3.83;1.98;;;;;;;5.42;78.04;100946.84;4173523;28;20037;-68
2023/12/20 08:49:26;;;;;;;5.60;2.22;;;;;;;5.43;77.87;100945.13;4173873;28;20176;-69
2023/12/20 08:51:29;;;;;;;8.75;2.15;;;;;;;5.41;77.49;100944.19;4186098;28;20556;-67
2023/12/20 08:53:32;;;;;;;9.23;3.63;;;;;;;5.42;77.12;100944.25;4178021;28;20079;-68
2023/12/20 08:55:34;;;;;;;10.07;3.15;;;;;;;5.46;77.12;100945.28;4180157;28;20073;-68
2023/12/20 08:57:39;;;;;;;6.20;2.22;;;;;;;5.49;77.21;100949.66;4181558;28;20106;-68
2023/12/20 08:59:42;;;;;;;6.38;2.45;;;;;;;5.45;76.59;100940.03;4181373;28;20052;-68
2023/12/20 09:01:46;;;;;;;7.50;2.33;;;;;;;5.47;76.67;100943.59;4181397;28;20069;-69
2023/12/20 09:03:49;;;;;;;9.00;2.10;;;;;;;5.50;76.92;100959.19;4178164;28;20399;-68
2023/12/20 09:05:52;;;;;;;4.82;2.17;;;;;;;5.54;77.35;100961.09;4178999;28;20037;-69
2023/12/20 09:07:55;;;;;;;6.45;2.30;;;;;;;5.51;77.12;100946.34;4178696;28;20127;-66
2023/12/20 09:09:59;;;;;;;8.57;2.20;;;;;;;5.51;76.91;100951.50;4171905;28;20082;-68
2023/12/20 09:12:02;;;;;;;10.40;2.38;;;;;;;5.53;77.28;100952.44;4173265;28;20134;-69
2023/12/20 09:14:06;;;;;;;3.35;1.75;;;;;;;5.57;77.33;100954.34;4171554;28;20691;-69
2023/12/20 09:16:10;;;;;;;10.27;2.08;;;;;;;5.65;77.28;100957.28;4176357;28;20589;-69
2023/12/20 09:18:13;;;;;;;8.70;2.40;;;;;;;5.64;77.23;100959.78;4176910;28;20072;-69
2023/12/20 09:20:16;;;;;;;6.72;2.42;;;;;;;5.71;77.55;100959.19;4186746;28;20040;-69
2023/12/20 09:22:18;;;;;;;7.78;2.05;;;;;;;5.69;77.10;100950.53;4176203;28;20163;-69
2023/12/20 09:24:21;;;;;;;8.90;2.33;;;;;;;5.72;76.75;100953.22;4176165;28;20526;-69
2023/12/20 09:26:24;;;;;;;9.80;2.55;;;;;;;5.74;76.66;100957.66;4175609;28;20041;-68
2023/12/20 09:28:27;;;;;;;7.40;2.05;;;;;;;5.82;77.31;100957.09;4180441;28;20065;-69
2023/12/20 09:30:31;;;;;;;8.05;2.60;;;;;;;5.88;76.97;100962.50;4191496;28;20044;-69
2023/12/20 09:32:35;;;;;;;6.45;2.45;;;;;;;5.88;77.21;100967.66;4176497;28;20072;-68
2023/12/20 09:34:38;;;;;;;6.05;2.30;;;;;;;5.93;77.24;100966.16;4175252;28;20036;-68
2023/12/20 09:36:46;;;;;;;9.57;3.42;;;;;;;5.91;77.20;100960.03;4175357;28;20075;-68
2023/12/20 09:38:49;;;;;;;8.75;2.30;;;;;;;5.93;78.11;100963.56;4173946;28;20111;-69
2023/12/20 09:40:52;;;;;;;5.03;2.08;;;;;;;6.02;77.72;100960.53;4175900;28;20037;-68